Carryduff, United Kingdom
Current Conditions -  °F | °C
As of 9:20 PM on Wednesday 22 Oct 2014 (Local Time) from EGAC Reporting Station
Few Clouds Few Clouds  
Wind Chill: 54°   Ceiling: Unl
Heat Index: 54°   Visibility: 6mi
Dew Point: 48°   Wind: 15mph
Humidity: 82%   Direction: 230°SW
Pressure: 30"   Gusts: NA
Location:  54.52°N, 5.89°W
Report Text: EGAC 222020Z 23013KT 9999 FEW028 12/09 Q1016
Loading
Personal Weather Stations






























Interactive Weather Map
Tropical Storm Tracking
New forecast layout! Learn more

10-Day Weather Forecast

Advertisements
Track Severe Weather on mobile